sensor_id;sensor_type;location;lat;lon;timestamp;P1;durP1;ratioP1;P2;durP2;ratioP2
4517;SDS011;2271;49.464;11.070;2023-04-03T00:01:10;1.23;;;1.13;;
4517;SDS011;2271;49.464;11.070;2023-04-03T00:03:35;1.30;;;1.10;;
4517;SDS011;2271;49.464;11.070;2023-04-03T00:06:02;3.10;;;1.37;;
4517;SDS011;2271;49.464;11.070;2023-04-03T00:08:28;1.13;;;1.03;;
4517;SDS011;2271;49.464;11.070;2023-04-03T00:10:56;2.57;;;1.47;;
4517;SDS011;2271;49.464;11.070;2023-04-03T00:13:22;1.60;;;1.30;;
4517;SDS011;2271;49.464;11.070;2023-04-03T00:15:48;1.10;;;1.10;;
4517;SDS011;2271;49.464;11.070;2023-04-03T00:18:13;1.40;;;1.30;;
4517;SDS011;2271;49.464;11.070;2023-04-03T00:20:40;1.60;;;1.50;;
4517;SDS011;2271;49.464;11.070;2023-04-03T00:23:05;1.40;;;1.30;;
4517;SDS011;2271;49.464;11.070;2023-04-03T00:25:31;1.73;;;1.50;;
4517;SDS011;2271;49.464;11.070;2023-04-03T00:27:58;3.97;;;1.73;;
4517;SDS011;2271;49.464;11.070;2023-04-03T00:30:24;3.00;;;1.60;;
4517;SDS011;2271;49.464;11.070;2023-04-03T00:32:50;2.33;;;1.60;;
4517;SDS011;2271;49.464;11.070;2023-04-03T00:35:17;1.53;;;1.43;;
4517;SDS011;2271;49.464;11.070;2023-04-03T00:37:43;2.17;;;1.37;;
4517;SDS011;2271;49.464;11.070;2023-04-03T00:40:10;1.53;;;1.43;;
4517;SDS011;2271;49.464;11.070;2023-04-03T00:42:39;2.23;;;1.43;;
4517;SDS011;2271;49.464;11.070;2023-04-03T00:45:29;2.67;;;1.43;;
4517;SDS011;2271;49.464;11.070;2023-04-03T00:47:57;1.47;;;1.37;;
4517;SDS011;2271;49.464;11.070;2023-04-03T00:50:25;1.87;;;1.63;;
4517;SDS011;2271;49.464;11.070;2023-04-03T00:52:53;3.33;;;1.50;;
4517;SDS011;2271;49.464;11.070;2023-04-03T00:55:19;1.87;;;1.30;;
4517;SDS011;2271;49.464;11.070;2023-04-03T00:57:45;1.73;;;1.57;;
4517;SDS011;2271;49.464;11.070;2023-04-03T01:00:12;2.10;;;1.40;;
4517;SDS011;2271;49.464;11.070;2023-04-03T01:02:41;2.47;;;1.43;;
4517;SDS011;2271;49.464;11.070;2023-04-03T01:05:07;1.67;;;1.10;;
4517;SDS011;2271;49.464;11.070;2023-04-03T01:07:33;1.63;;;1.50;;
4517;SDS011;2271;49.464;11.070;2023-04-03T01:10:01;2.30;;;1.20;;
4517;SDS011;2271;49.464;11.070;2023-04-03T01:14:58;1.33;;;1.20;;
4517;SDS011;2271;49.464;11.070;2023-04-03T01:17:31;1.40;;;1.20;;
4517;SDS011;2271;49.464;11.070;2023-04-03T01:23:27;3.00;;;1.30;;
4517;SDS011;2271;49.464;11.070;2023-04-03T01:25:32;1.80;;;1.30;;
4517;SDS011;2271;49.464;11.070;2023-04-03T01:27:59;1.43;;;1.27;;
4517;SDS011;2271;49.464;11.070;2023-04-03T01:30:28;1.53;;;1.30;;
4517;SDS011;2271;49.464;11.070;2023-04-03T01:32:56;1.43;;;1.33;;
4517;SDS011;2271;49.464;11.070;2023-04-03T01:35:22;3.23;;;1.10;;
4517;SDS011;2271;49.464;11.070;2023-04-03T01:37:48;2.00;;;1.03;;
4517;SDS011;2271;49.464;11.070;2023-04-03T01:40:14;1.60;;;1.27;;
4517;SDS011;2271;49.464;11.070;2023-04-03T01:42:40;1.60;;;1.47;;
4517;SDS011;2271;49.464;11.070;2023-04-03T01:45:05;1.53;;;1.27;;
4517;SDS011;2271;49.464;11.070;2023-04-03T01:47:31;1.70;;;1.33;;
4517;SDS011;2271;49.464;11.070;2023-04-03T01:49:57;2.37;;;1.30;;
4517;SDS011;2271;49.464;11.070;2023-04-03T01:52:23;2.60;;;1.73;;
4517;SDS011;2271;49.464;11.070;2023-04-03T01:54:49;1.23;;;1.17;;
4517;SDS011;2271;49.464;11.070;2023-04-03T01:57:15;1.40;;;1.30;;
4517;SDS011;2271;49.464;11.070;2023-04-03T01:59:41;2.33;;;1.30;;
4517;SDS011;2271;49.464;11.070;2023-04-03T02:02:06;1.20;;;1.10;;
4517;SDS011;2271;49.464;11.070;2023-04-03T02:04:32;1.30;;;1.17;;
4517;SDS011;2271;49.464;11.070;2023-04-03T02:06:58;1.00;;;1.00;;
4517;SDS011;2271;49.464;11.070;2023-04-03T02:09:23;2.10;;;1.47;;
4517;SDS011;2271;49.464;11.070;2023-04-03T02:11:49;2.80;;;1.50;;
4517;SDS011;2271;49.464;11.070;2023-04-03T02:14:15;1.27;;;1.17;;
4517;SDS011;2271;49.464;11.070;2023-04-03T02:16:40;1.50;;;1.40;;
4517;SDS011;2271;49.464;11.070;2023-04-03T02:19:06;1.40;;;1.30;;
4517;SDS011;2271;49.464;11.070;2023-04-03T02:21:32;1.53;;;1.30;;
4517;SDS011;2271;49.464;11.070;2023-04-03T02:23:57;1.67;;;1.03;;
4517;SDS011;2271;49.464;11.070;2023-04-03T02:26:23;1.20;;;1.10;;
4517;SDS011;2271;49.464;11.070;2023-04-03T02:28:49;2.13;;;1.50;;
4517;SDS011;2271;49.464;11.070;2023-04-03T02:31:15;3.27;;;1.07;;
4517;SDS011;2271;49.464;11.070;2023-04-03T02:33:41;3.63;;;1.10;;
4517;SDS011;2271;49.464;11.070;2023-04-03T02:36:07;1.20;;;1.10;;
4517;SDS011;2271;49.464;11.070;2023-04-03T02:38:33;1.53;;;1.30;;
4517;SDS011;2271;49.464;11.070;2023-04-03T02:41:01;1.73;;;1.13;;
4517;SDS011;2271;49.464;11.070;2023-04-03T02:43:27;1.10;;;1.00;;
4517;SDS011;2271;49.464;11.070;2023-04-03T02:45:53;2.30;;;1.10;;
4517;SDS011;2271;49.464;11.070;2023-04-03T02:48:19;1.40;;;1.30;;
4517;SDS011;2271;49.464;11.070;2023-04-03T02:50:44;1.17;;;1.10;;
4517;SDS011;2271;49.464;11.070;2023-04-03T02:53:10;2.10;;;1.33;;
4517;SDS011;2271;49.464;11.070;2023-04-03T02:55:36;2.07;;;1.17;;
4517;SDS011;2271;49.464;11.070;2023-04-03T02:58:01;2.20;;;1.10;;
4517;SDS011;2271;49.464;11.070;2023-04-03T03:00:28;2.97;;;1.10;;
4517;SDS011;2271;49.464;11.070;2023-04-03T03:02:54;3.20;;;1.60;;
4517;SDS011;2271;49.464;11.070;2023-04-03T03:05:20;2.43;;;1.70;;
4517;SDS011;2271;49.464;11.070;2023-04-03T03:07:45;1.30;;;1.20;;
4517;SDS011;2271;49.464;11.070;2023-04-03T03:10:11;3.80;;;1.70;;
4517;SDS011;2271;49.464;11.070;2023-04-03T03:12:36;2.70;;;1.70;;
4517;SDS011;2271;49.464;11.070;2023-04-03T03:15:02;3.37;;;1.27;;
4517;SDS011;2271;49.464;11.070;2023-04-03T03:17:28;2.97;;;1.03;;
4517;SDS011;2271;49.464;11.070;2023-04-03T03:19:53;1.50;;;1.40;;
4517;SDS011;2271;49.464;11.070;2023-04-03T03:22:19;1.70;;;1.30;;
4517;SDS011;2271;49.464;11.070;2023-04-03T03:24:45;1.50;;;1.40;;
4517;SDS011;2271;49.464;11.070;2023-04-03T03:27:11;1.37;;;1.27;;
4517;SDS011;2271;49.464;11.070;2023-04-03T03:29:37;1.70;;;1.50;;
4517;SDS011;2271;49.464;11.070;2023-04-03T03:32:03;4.07;;;1.90;;
4517;SDS011;2271;49.464;11.070;2023-04-03T03:34:28;2.00;;;1.80;;
4517;SDS011;2271;49.464;11.070;2023-04-03T03:36:54;1.57;;;1.47;;
4517;SDS011;2271;49.464;11.070;2023-04-03T03:39:20;3.23;;;2.50;;
4517;SDS011;2271;49.464;11.070;2023-04-03T03:41:46;3.67;;;1.90;;
4517;SDS011;2271;49.464;11.070;2023-04-03T03:44:12;3.00;;;1.87;;
4517;SDS011;2271;49.464;11.070;2023-04-03T03:46:38;3.10;;;1.60;;
4517;SDS011;2271;49.464;11.070;2023-04-03T03:49:03;2.83;;;1.83;;
4517;SDS011;2271;49.464;11.070;2023-04-03T03:51:29;1.90;;;1.60;;
4517;SDS011;2271;49.464;11.070;2023-04-03T03:53:55;3.73;;;2.03;;
4517;SDS011;2271;49.464;11.070;2023-04-03T03:56:20;2.90;;;2.30;;
4517;SDS011;2271;49.464;11.070;2023-04-03T03:58:46;5.97;;;3.87;;
4517;SDS011;2271;49.464;11.070;2023-04-03T04:01:12;4.73;;;3.33;;
4517;SDS011;2271;49.464;11.070;2023-04-03T04:03:37;5.57;;;3.50;;
4517;SDS011;2271;49.464;11.070;2023-04-03T04:06:03;2.77;;;2.33;;
4517;SDS011;2271;49.464;11.070;2023-04-03T04:08:29;3.60;;;2.33;;
4517;SDS011;2271;49.464;11.070;2023-04-03T04:10:55;2.53;;;2.20;;
4517;SDS011;2271;49.464;11.070;2023-04-03T04:13:20;3.03;;;2.30;;
4517;SDS011;2271;49.464;11.070;2023-04-03T04:15:46;1.73;;;1.40;;
4517;SDS011;2271;49.464;11.070;2023-04-03T04:18:12;2.40;;;1.90;;
4517;SDS011;2271;49.464;11.070;2023-04-03T04:20:37;5.13;;;2.10;;
4517;SDS011;2271;49.464;11.070;2023-04-03T04:23:03;2.17;;;1.73;;
4517;SDS011;2271;49.464;11.070;2023-04-03T04:25:29;1.60;;;1.50;;
4517;SDS011;2271;49.464;11.070;2023-04-03T04:27:54;2.33;;;1.67;;
4517;SDS011;2271;49.464;11.070;2023-04-03T04:30:20;2.57;;;2.00;;
4517;SDS011;2271;49.464;11.070;2023-04-03T04:32:46;3.97;;;1.70;;
4517;SDS011;2271;49.464;11.070;2023-04-03T04:35:12;3.00;;;1.77;;
4517;SDS011;2271;49.464;11.070;2023-04-03T04:37:37;3.73;;;2.37;;
4517;SDS011;2271;49.464;11.070;2023-04-03T04:40:03;3.17;;;1.70;;
4517;SDS011;2271;49.464;11.070;2023-04-03T04:42:29;2.83;;;2.00;;
4517;SDS011;2271;49.464;11.070;2023-04-03T04:44:55;3.90;;;1.80;;
4517;SDS011;2271;49.464;11.070;2023-04-03T04:47:20;8.07;;;2.40;;
4517;SDS011;2271;49.464;11.070;2023-04-03T04:49:46;3.87;;;1.97;;
4517;SDS011;2271;49.464;11.070;2023-04-03T04:52:12;2.10;;;1.70;;
4517;SDS011;2271;49.464;11.070;2023-04-03T04:54:38;3.20;;;2.00;;
4517;SDS011;2271;49.464;11.070;2023-04-03T04:57:04;3.47;;;2.30;;
4517;SDS011;2271;49.464;11.070;2023-04-03T04:59:30;6.47;;;2.03;;
4517;SDS011;2271;49.464;11.070;2023-04-03T05:01:55;4.27;;;2.33;;
4517;SDS011;2271;49.464;11.070;2023-04-03T05:04:21;2.27;;;1.93;;
4517;SDS011;2271;49.464;11.070;2023-04-03T05:06:47;6.27;;;2.40;;
4517;SDS011;2271;49.464;11.070;2023-04-03T05:09:13;4.70;;;2.70;;
4517;SDS011;2271;49.464;11.070;2023-04-03T05:11:38;3.20;;;2.17;;
4517;SDS011;2271;49.464;11.070;2023-04-03T05:14:04;4.00;;;2.13;;
4517;SDS011;2271;49.464;11.070;2023-04-03T05:16:33;2.67;;;1.73;;
4517;SDS011;2271;49.464;11.070;2023-04-03T05:18:59;2.20;;;1.73;;
4517;SDS011;2271;49.464;11.070;2023-04-03T05:21:25;6.07;;;1.97;;
4517;SDS011;2271;49.464;11.070;2023-04-03T05:23:52;4.27;;;2.73;;
4517;SDS011;2271;49.464;11.070;2023-04-03T05:26:18;5.47;;;2.37;;
4517;SDS011;2271;49.464;11.070;2023-04-03T05:28:44;2.63;;;1.90;;
4517;SDS011;2271;49.464;11.070;2023-04-03T05:31:09;2.93;;;2.03;;
4517;SDS011;2271;49.464;11.070;2023-04-03T05:33:35;11.43;;;2.47;;
4517;SDS011;2271;49.464;11.070;2023-04-03T05:36:04;3.63;;;2.17;;
4517;SDS011;2271;49.464;11.070;2023-04-03T05:38:31;4.03;;;2.30;;
4517;SDS011;2271;49.464;11.070;2023-04-03T05:40:57;4.50;;;1.90;;
4517;SDS011;2271;49.464;11.070;2023-04-03T05:43:23;3.87;;;2.57;;
4517;SDS011;2271;49.464;11.070;2023-04-03T05:45:49;3.80;;;2.50;;
4517;SDS011;2271;49.464;11.070;2023-04-03T05:48:15;3.20;;;2.17;;
4517;SDS011;2271;49.464;11.070;2023-04-03T05:50:41;4.23;;;2.40;;
4517;SDS011;2271;49.464;11.070;2023-04-03T05:53:07;3.33;;;2.20;;
4517;SDS011;2271;49.464;11.070;2023-04-03T05:55:42;3.13;;;1.60;;
4517;SDS011;2271;49.464;11.070;2023-04-03T05:58:08;10.27;;;2.07;;
4517;SDS011;2271;49.464;11.070;2023-04-03T06:00:33;2.67;;;1.97;;
4517;SDS011;2271;49.464;11.070;2023-04-03T06:02:59;2.47;;;1.83;;
4517;SDS011;2271;49.464;11.070;2023-04-03T06:05:25;4.27;;;1.90;;
4517;SDS011;2271;49.464;11.070;2023-04-03T06:07:50;3.83;;;1.83;;
4517;SDS011;2271;49.464;11.070;2023-04-03T06:10:16;1.97;;;1.70;;
4517;SDS011;2271;49.464;11.070;2023-04-03T06:12:42;2.97;;;1.63;;
4517;SDS011;2271;49.464;11.070;2023-04-03T06:15:08;2.90;;;1.83;;
4517;SDS011;2271;49.464;11.070;2023-04-03T06:17:35;1.93;;;1.60;;
4517;SDS011;2271;49.464;11.070;2023-04-03T06:20:02;1.67;;;1.57;;
4517;SDS011;2271;49.464;11.070;2023-04-03T06:22:28;8.10;;;2.57;;
4517;SDS011;2271;49.464;11.070;2023-04-03T06:24:55;1.47;;;1.37;;
4517;SDS011;2271;49.464;11.070;2023-04-03T06:27:21;4.93;;;1.60;;
4517;SDS011;2271;49.464;11.070;2023-04-03T06:29:47;4.40;;;2.03;;
4517;SDS011;2271;49.464;11.070;2023-04-03T06:32:14;5.37;;;1.73;;
4517;SDS011;2271;49.464;11.070;2023-04-03T06:34:40;3.00;;;2.07;;
4517;SDS011;2271;49.464;11.070;2023-04-03T06:37:06;2.90;;;1.80;;
4517;SDS011;2271;49.464;11.070;2023-04-03T06:39:42;9.00;;;1.97;;
4517;SDS011;2271;49.464;11.070;2023-04-03T06:42:08;2.17;;;1.90;;
4517;SDS011;2271;49.464;11.070;2023-04-03T06:44:33;2.93;;;1.60;;
4517;SDS011;2271;49.464;11.070;2023-04-03T06:46:59;4.13;;;1.70;;
4517;SDS011;2271;49.464;11.070;2023-04-03T06:49:26;2.77;;;2.40;;
4517;SDS011;2271;49.464;11.070;2023-04-03T06:51:51;7.63;;;2.33;;
4517;SDS011;2271;49.464;11.070;2023-04-03T06:54:17;6.43;;;2.60;;
4517;SDS011;2271;49.464;11.070;2023-04-03T06:56:43;8.67;;;2.67;;
4517;SDS011;2271;49.464;11.070;2023-04-03T06:59:10;2.37;;;1.50;;
4517;SDS011;2271;49.464;11.070;2023-04-03T07:01:38;3.67;;;2.33;;
4517;SDS011;2271;49.464;11.070;2023-04-03T07:04:05;3.37;;;2.50;;
4517;SDS011;2271;49.464;11.070;2023-04-03T07:06:32;4.17;;;2.60;;
4517;SDS011;2271;49.464;11.070;2023-04-03T07:08:58;4.43;;;2.63;;
4517;SDS011;2271;49.464;11.070;2023-04-03T07:11:25;4.73;;;2.67;;
4517;SDS011;2271;49.464;11.070;2023-04-03T07:13:51;2.83;;;2.13;;
4517;SDS011;2271;49.464;11.070;2023-04-03T07:16:17;4.10;;;1.90;;
4517;SDS011;2271;49.464;11.070;2023-04-03T07:18:43;4.00;;;2.30;;
4517;SDS011;2271;49.464;11.070;2023-04-03T07:21:09;2.80;;;2.03;;
4517;SDS011;2271;49.464;11.070;2023-04-03T07:23:35;4.30;;;1.93;;
4517;SDS011;2271;49.464;11.070;2023-04-03T07:26:01;2.70;;;2.33;;
4517;SDS011;2271;49.464;11.070;2023-04-03T07:28:27;4.30;;;3.07;;
4517;SDS011;2271;49.464;11.070;2023-04-03T07:30:54;4.97;;;2.47;;
4517;SDS011;2271;49.464;11.070;2023-04-03T07:33:25;9.07;;;3.20;;
4517;SDS011;2271;49.464;11.070;2023-04-03T07:35:51;4.03;;;2.50;;
4517;SDS011;2271;49.464;11.070;2023-04-03T07:38:17;3.23;;;2.27;;
4517;SDS011;2271;49.464;11.070;2023-04-03T07:40:49;6.20;;;2.80;;
4517;SDS011;2271;49.464;11.070;2023-04-03T07:43:16;2.80;;;2.50;;
4517;SDS011;2271;49.464;11.070;2023-04-03T07:45:45;4.33;;;2.63;;
4517;SDS011;2271;49.464;11.070;2023-04-03T07:48:12;7.73;;;2.57;;
4517;SDS011;2271;49.464;11.070;2023-04-03T07:50:41;2.30;;;2.10;;
4517;SDS011;2271;49.464;11.070;2023-04-03T07:53:07;6.67;;;2.47;;
4517;SDS011;2271;49.464;11.070;2023-04-03T07:55:33;7.13;;;1.77;;
4517;SDS011;2271;49.464;11.070;2023-04-03T07:57:59;4.23;;;2.40;;
4517;SDS011;2271;49.464;11.070;2023-04-03T08:00:24;4.17;;;2.40;;
4517;SDS011;2271;49.464;11.070;2023-04-03T08:02:50;4.90;;;2.57;;
4517;SDS011;2271;49.464;11.070;2023-04-03T08:05:17;7.27;;;2.40;;
4517;SDS011;2271;49.464;11.070;2023-04-03T08:07:43;5.53;;;2.70;;
4517;SDS011;2271;49.464;11.070;2023-04-03T08:10:09;5.87;;;2.43;;
4517;SDS011;2271;49.464;11.070;2023-04-03T08:12:35;4.63;;;2.33;;
4517;SDS011;2271;49.464;11.070;2023-04-03T08:15:02;4.17;;;2.30;;
4517;SDS011;2271;49.464;11.070;2023-04-03T08:17:28;6.27;;;2.07;;
4517;SDS011;2271;49.464;11.070;2023-04-03T08:19:54;3.00;;;2.53;;
4517;SDS011;2271;49.464;11.070;2023-04-03T08:22:20;2.63;;;2.03;;
4517;SDS011;2271;49.464;11.070;2023-04-03T08:24:46;1.93;;;1.80;;
4517;SDS011;2271;49.464;11.070;2023-04-03T08:27:12;2.57;;;1.83;;
4517;SDS011;2271;49.464;11.070;2023-04-03T08:29:38;2.27;;;1.90;;
4517;SDS011;2271;49.464;11.070;2023-04-03T08:32:04;2.60;;;2.07;;
4517;SDS011;2271;49.464;11.070;2023-04-03T08:34:30;4.77;;;1.90;;
4517;SDS011;2271;49.464;11.070;2023-04-03T08:36:59;3.73;;;2.30;;
4517;SDS011;2271;49.464;11.070;2023-04-03T08:39:28;3.80;;;1.73;;
4517;SDS011;2271;49.464;11.070;2023-04-03T08:41:55;2.27;;;1.87;;
4517;SDS011;2271;49.464;11.070;2023-04-03T08:49:48;3.87;;;2.20;;
4517;SDS011;2271;49.464;11.070;2023-04-03T08:52:19;4.50;;;1.83;;
4517;SDS011;2271;49.464;11.070;2023-04-03T08:54:51;2.67;;;1.87;;
4517;SDS011;2271;49.464;11.070;2023-04-03T08:57:21;1.47;;;1.17;;
4517;SDS011;2271;49.464;11.070;2023-04-03T09:00:14;2.93;;;1.70;;
4517;SDS011;2271;49.464;11.070;2023-04-03T09:02:48;6.70;;;1.60;;
4517;SDS011;2271;49.464;11.070;2023-04-03T09:05:18;2.07;;;1.30;;
4517;SDS011;2271;49.464;11.070;2023-04-03T09:10:46;2.57;;;1.60;;
4517;SDS011;2271;49.464;11.070;2023-04-03T09:15:46;2.77;;;1.70;;
4517;SDS011;2271;49.464;11.070;2023-04-03T09:18:16;2.13;;;1.57;;
4517;SDS011;2271;49.464;11.070;2023-04-03T09:23:50;4.07;;;1.73;;
4517;SDS011;2271;49.464;11.070;2023-04-03T09:26:29;3.23;;;1.80;;
4517;SDS011;2271;49.464;11.070;2023-04-03T09:29:00;4.20;;;2.00;;
4517;SDS011;2271;49.464;11.070;2023-04-03T09:31:38;4.27;;;2.70;;
4517;SDS011;2271;49.464;11.070;2023-04-03T09:34:16;4.23;;;2.07;;
4517;SDS011;2271;49.464;11.070;2023-04-03T09:36:49;4.50;;;2.13;;
4517;SDS011;2271;49.464;11.070;2023-04-03T09:39:18;4.57;;;2.50;;
4517;SDS011;2271;49.464;11.070;2023-04-03T09:42:04;4.10;;;1.90;;
4517;SDS011;2271;49.464;11.070;2023-04-03T09:44:38;2.30;;;2.07;;
4517;SDS011;2271;49.464;11.070;2023-04-03T09:47:16;5.03;;;1.90;;
4517;SDS011;2271;49.464;11.070;2023-04-03T09:49:43;4.50;;;2.83;;
4517;SDS011;2271;49.464;11.070;2023-04-03T09:52:19;2.93;;;1.80;;
4517;SDS011;2271;49.464;11.070;2023-04-03T09:54:47;3.63;;;1.80;;
4517;SDS011;2271;49.464;11.070;2023-04-03T09:57:14;4.10;;;2.20;;
4517;SDS011;2271;49.464;11.070;2023-04-03T09:59:42;3.63;;;2.00;;
4517;SDS011;2271;49.464;11.070;2023-04-03T10:02:24;3.43;;;1.33;;
4517;SDS011;2271;49.464;11.070;2023-04-03T10:04:57;2.97;;;1.53;;
4517;SDS011;2271;49.464;11.070;2023-04-03T10:07:34;3.00;;;1.50;;
4517;SDS011;2271;49.464;11.070;2023-04-03T10:10:18;2.47;;;1.67;;
4517;SDS011;2271;49.464;11.070;2023-04-03T10:12:48;1.40;;;1.27;;
4517;SDS011;2271;49.464;11.070;2023-04-03T10:15:28;2.30;;;1.70;;
4517;SDS011;2271;49.464;11.070;2023-04-03T10:18:00;3.20;;;1.57;;
4517;SDS011;2271;49.464;11.070;2023-04-03T10:20:30;2.80;;;1.63;;
4517;SDS011;2271;49.464;11.070;2023-04-03T10:23:22;2.60;;;1.50;;
4517;SDS011;2271;49.464;11.070;2023-04-03T10:29:00;2.97;;;1.50;;
4517;SDS011;2271;49.464;11.070;2023-04-03T10:31:46;2.47;;;1.30;;
4517;SDS011;2271;49.464;11.070;2023-04-03T10:34:37;1.70;;;1.20;;
4517;SDS011;2271;49.464;11.070;2023-04-03T10:37:21;7.57;;;1.87;;
4517;SDS011;2271;49.464;11.070;2023-04-03T10:39:59;4.80;;;1.67;;
4517;SDS011;2271;49.464;11.070;2023-04-03T10:42:28;2.03;;;1.43;;
4517;SDS011;2271;49.464;11.070;2023-04-03T10:50:15;6.83;;;1.80;;
4517;SDS011;2271;49.464;11.070;2023-04-03T10:53:14;5.00;;;1.67;;
4517;SDS011;2271;49.464;11.070;2023-04-03T10:56:03;3.30;;;1.30;;
4517;SDS011;2271;49.464;11.070;2023-04-03T10:58:57;2.70;;;1.50;;
4517;SDS011;2271;49.464;11.070;2023-04-03T11:01:44;2.60;;;1.20;;
4517;SDS011;2271;49.464;11.070;2023-04-03T11:04:12;3.67;;;1.20;;
4517;SDS011;2271;49.464;11.070;2023-04-03T11:06:47;2.27;;;1.33;;
4517;SDS011;2271;49.464;11.070;2023-04-03T11:09:28;1.30;;;1.10;;
4517;SDS011;2271;49.464;11.070;2023-04-03T11:12:00;3.17;;;1.70;;
4517;SDS011;2271;49.464;11.070;2023-04-03T11:14:34;5.33;;;1.63;;
4517;SDS011;2271;49.464;11.070;2023-04-03T11:17:04;2.90;;;1.37;;
4517;SDS011;2271;49.464;11.070;2023-04-03T11:20:20;1.77;;;1.50;;
4517;SDS011;2271;49.464;11.070;2023-04-03T11:25:04;4.47;;;1.67;;
4517;SDS011;2271;49.464;11.070;2023-04-03T11:27:51;2.27;;;1.03;;
4517;SDS011;2271;49.464;11.070;2023-04-03T11:30:44;2.57;;;1.40;;
4517;SDS011;2271;49.464;11.070;2023-04-03T11:38:35;1.93;;;1.83;;
4517;SDS011;2271;49.464;11.070;2023-04-03T11:41:06;1.50;;;1.00;;
4517;SDS011;2271;49.464;11.070;2023-04-03T11:43:33;1.43;;;1.10;;
4517;SDS011;2271;49.464;11.070;2023-04-03T11:46:05;2.30;;;1.53;;
4517;SDS011;2271;49.464;11.070;2023-04-03T11:53:41;3.77;;;1.77;;
4517;SDS011;2271;49.464;11.070;2023-04-03T12:01:51;4.53;;;1.60;;
4517;SDS011;2271;49.464;11.070;2023-04-03T12:04:19;2.63;;;1.20;;
4517;SDS011;2271;49.464;11.070;2023-04-03T12:11:52;1.60;;;1.50;;
4517;SDS011;2271;49.464;11.070;2023-04-03T12:14:20;2.87;;;1.63;;
4517;SDS011;2271;49.464;11.070;2023-04-03T12:16:49;3.13;;;1.40;;
4517;SDS011;2271;49.464;11.070;2023-04-03T12:35:28;3.27;;;1.53;;
4517;SDS011;2271;49.464;11.070;2023-04-03T12:48:16;2.70;;;1.63;;
4517;SDS011;2271;49.464;11.070;2023-04-03T12:50:46;2.57;;;1.17;;
4517;SDS011;2271;49.464;11.070;2023-04-03T12:53:18;2.97;;;1.20;;
4517;SDS011;2271;49.464;11.070;2023-04-03T12:55:53;1.40;;;0.97;;
4517;SDS011;2271;49.464;11.070;2023-04-03T13:01:03;1.70;;;1.10;;
4517;SDS011;2271;49.464;11.070;2023-04-03T13:03:36;4.93;;;1.50;;
4517;SDS011;2271;49.464;11.070;2023-04-03T13:06:05;5.43;;;1.70;;
4517;SDS011;2271;49.464;11.070;2023-04-03T13:08:31;2.07;;;1.03;;
4517;SDS011;2271;49.464;11.070;2023-04-03T13:11:08;3.40;;;1.40;;
4517;SDS011;2271;49.464;11.070;2023-04-03T13:13:37;1.63;;;1.20;;
4517;SDS011;2271;49.464;11.070;2023-04-03T13:16:10;4.60;;;1.40;;
4517;SDS011;2271;49.464;11.070;2023-04-03T13:18:38;2.67;;;1.63;;
4517;SDS011;2271;49.464;11.070;2023-04-03T13:21:06;6.30;;;1.60;;
4517;SDS011;2271;49.464;11.070;2023-04-03T13:23:36;3.10;;;1.67;;
4517;SDS011;2271;49.464;11.070;2023-04-03T13:26:05;3.67;;;1.40;;
4517;SDS011;2271;49.464;11.070;2023-04-03T13:28:32;4.60;;;1.83;;
4517;SDS011;2271;49.464;11.070;2023-04-03T13:33:33;1.73;;;1.30;;
4517;SDS011;2271;49.464;11.070;2023-04-03T13:38:38;1.83;;;1.37;;
4517;SDS011;2271;49.464;11.070;2023-04-03T13:41:20;3.03;;;1.80;;
4517;SDS011;2271;49.464;11.070;2023-04-03T13:43:48;3.07;;;1.60;;
4517;SDS011;2271;49.464;11.070;2023-04-03T13:48:42;4.97;;;2.37;;
4517;SDS011;2271;49.464;11.070;2023-04-03T13:53:57;2.57;;;1.53;;
4517;SDS011;2271;49.464;11.070;2023-04-03T13:56:35;3.03;;;1.50;;
4517;SDS011;2271;49.464;11.070;2023-04-03T14:01:42;1.70;;;1.13;;
4517;SDS011;2271;49.464;11.070;2023-04-03T14:04:20;3.93;;;1.40;;
4517;SDS011;2271;49.464;11.070;2023-04-03T14:06:47;1.47;;;1.33;;
4517;SDS011;2271;49.464;11.070;2023-04-03T14:09:13;1.30;;;1.20;;
4517;SDS011;2271;49.464;11.070;2023-04-03T14:11:41;2.90;;;1.40;;
4517;SDS011;2271;49.464;11.070;2023-04-03T14:14:18;3.23;;;1.30;;
4517;SDS011;2271;49.464;11.070;2023-04-03T14:16:47;2.67;;;1.53;;
4517;SDS011;2271;49.464;11.070;2023-04-03T14:19:23;3.43;;;1.57;;
4517;SDS011;2271;49.464;11.070;2023-04-03T14:21:51;3.03;;;1.40;;
4517;SDS011;2271;49.464;11.070;2023-04-03T14:24:19;2.67;;;1.40;;
4517;SDS011;2271;49.464;11.070;2023-04-03T14:26:45;2.87;;;1.87;;
4517;SDS011;2271;49.464;11.070;2023-04-03T14:29:11;1.60;;;1.27;;
4517;SDS011;2271;49.464;11.070;2023-04-03T14:31:38;1.40;;;1.30;;
4517;SDS011;2271;49.464;11.070;2023-04-03T14:34:05;1.50;;;1.40;;
4517;SDS011;2271;49.464;11.070;2023-04-03T14:36:30;2.77;;;1.27;;
4517;SDS011;2271;49.464;11.070;2023-04-03T14:38:59;1.70;;;1.30;;
4517;SDS011;2271;49.464;11.070;2023-04-03T14:41:25;1.83;;;1.47;;
4517;SDS011;2271;49.464;11.070;2023-04-03T14:43:52;2.80;;;1.40;;
4517;SDS011;2271;49.464;11.070;2023-04-03T14:46:26;3.47;;;1.70;;
4517;SDS011;2271;49.464;11.070;2023-04-03T14:48:53;6.10;;;1.70;;
4517;SDS011;2271;49.464;11.070;2023-04-03T14:51:22;2.77;;;1.20;;
4517;SDS011;2271;49.464;11.070;2023-04-03T14:53:48;2.17;;;1.50;;
4517;SDS011;2271;49.464;11.070;2023-04-03T14:56:16;2.73;;;1.53;;
4517;SDS011;2271;49.464;11.070;2023-04-03T14:58:43;1.23;;;1.10;;
4517;SDS011;2271;49.464;11.070;2023-04-03T15:01:10;1.03;;;0.97;;
4517;SDS011;2271;49.464;11.070;2023-04-03T15:03:37;3.23;;;1.30;;
4517;SDS011;2271;49.464;11.070;2023-04-03T15:06:03;4.07;;;1.47;;
4517;SDS011;2271;49.464;11.070;2023-04-03T15:08:28;3.17;;;2.23;;
4517;SDS011;2271;49.464;11.070;2023-04-03T15:10:54;2.50;;;1.07;;
4517;SDS011;2271;49.464;11.070;2023-04-03T15:13:21;1.83;;;1.13;;
4517;SDS011;2271;49.464;11.070;2023-04-03T15:15:48;3.57;;;1.40;;
4517;SDS011;2271;49.464;11.070;2023-04-03T15:18:17;2.97;;;1.30;;
4517;SDS011;2271;49.464;11.070;2023-04-03T15:20:45;2.20;;;1.37;;
4517;SDS011;2271;49.464;11.070;2023-04-03T15:23:12;4.50;;;1.43;;
4517;SDS011;2271;49.464;11.070;2023-04-03T15:25:40;1.53;;;1.40;;
4517;SDS011;2271;49.464;11.070;2023-04-03T15:28:08;1.63;;;1.17;;
4517;SDS011;2271;49.464;11.070;2023-04-03T15:30:40;1.30;;;1.00;;
4517;SDS011;2271;49.464;11.070;2023-04-03T15:33:06;2.40;;;1.03;;
4517;SDS011;2271;49.464;11.070;2023-04-03T15:35:31;2.60;;;1.30;;
4517;SDS011;2271;49.464;11.070;2023-04-03T15:37:57;2.80;;;1.93;;
4517;SDS011;2271;49.464;11.070;2023-04-03T15:40:23;2.23;;;2.03;;
4517;SDS011;2271;49.464;11.070;2023-04-03T15:42:48;3.23;;;1.40;;
4517;SDS011;2271;49.464;11.070;2023-04-03T15:45:14;4.37;;;2.27;;
4517;SDS011;2271;49.464;11.070;2023-04-03T15:47:39;1.77;;;1.30;;
4517;SDS011;2271;49.464;11.070;2023-04-03T15:50:05;2.50;;;1.60;;
4517;SDS011;2271;49.464;11.070;2023-04-03T15:52:32;3.63;;;2.40;;
4517;SDS011;2271;49.464;11.070;2023-04-03T15:54:58;4.60;;;1.60;;
4517;SDS011;2271;49.464;11.070;2023-04-03T15:57:24;3.17;;;1.97;;
4517;SDS011;2271;49.464;11.070;2023-04-03T15:59:51;1.10;;;1.00;;
4517;SDS011;2271;49.464;11.070;2023-04-03T16:02:17;2.63;;;1.53;;
4517;SDS011;2271;49.464;11.070;2023-04-03T16:04:43;2.87;;;1.47;;
4517;SDS011;2271;49.464;11.070;2023-04-03T16:07:09;5.60;;;1.73;;
4517;SDS011;2271;49.464;11.070;2023-04-03T16:09:35;2.13;;;1.40;;
4517;SDS011;2271;49.464;11.070;2023-04-03T16:12:01;1.57;;;1.30;;
4517;SDS011;2271;49.464;11.070;2023-04-03T16:14:27;2.07;;;1.30;;
4517;SDS011;2271;49.464;11.070;2023-04-03T16:16:54;1.73;;;1.63;;
4517;SDS011;2271;49.464;11.070;2023-04-03T16:19:21;4.03;;;1.60;;
4517;SDS011;2271;49.464;11.070;2023-04-03T16:21:46;1.47;;;1.30;;
4517;SDS011;2271;49.464;11.070;2023-04-03T16:24:13;1.63;;;1.23;;
4517;SDS011;2271;49.464;11.070;2023-04-03T16:26:39;2.23;;;1.40;;
4517;SDS011;2271;49.464;11.070;2023-04-03T16:29:05;1.83;;;1.17;;
4517;SDS011;2271;49.464;11.070;2023-04-03T16:31:30;5.20;;;1.63;;
4517;SDS011;2271;49.464;11.070;2023-04-03T16:33:57;4.43;;;1.40;;
4517;SDS011;2271;49.464;11.070;2023-04-03T16:36:24;1.77;;;1.27;;
4517;SDS011;2271;49.464;11.070;2023-04-03T16:38:50;3.70;;;1.90;;
4517;SDS011;2271;49.464;11.070;2023-04-03T16:41:16;2.37;;;1.80;;